Historyczne dane pomiarowe

Dodano dane terminowe – wersja testowa.

Dane z okresu 1951-2019

Wersja bazy: 1.34 [2019-03-16, lista zmian], aktualizacja planowana na 2019-04-15

Dane meteo z obszaru Polski uzyskane na podstawie danych udostępnionych przez Instytut Meteorologii i Gospodarki Wodnej – Państwowy Instytut Badawczy.

 

Wybierz Datę:    

       

TemperaturaWilgotnośćWiatrCiśnienieOpadyŚniegCzas trwania zjawisk
 Stacja t tx tn tng RH VA  wxwx mslp ppp RRR   cm mm wxwxwxwxwxwxwx
1967-04-17 13.4 16.0 9.0--- 8.0 4.0---- 0.0------------
1967-04-18 5.7 14.4 1.8--- 4.0 4.0---- 0.0------------
1967-04-19 2.3 7.9 -3.8--- 3.7 2.0---- 1.0------------
1967-04-20 11.5 14.2 0.4--- 4.7 6.0---- 0.0------------
1967-04-21 14.3 19.3 7.8--- 3.3 7.0---- 0.0------------
1967-04-22 4.4 14.2 1.3--- 8.0 3.0---- 20.1------------
1967-04-23 2.0 2.8 0.6--- 8.0 8.0---- 9.8------------
1967-04-24 1.7 3.2 0.8--- 8.0 2.0---- 10.7------------
1967-04-25 5.9 6.5 1.0--- 8.0 2.0---- 12.5------------
1967-04-26 8.4 9.7 6.0--- 8.0 1.0---- 4.0------------
1967-04-27 9.3 10.3 7.6--- 8.0 1.0---- 12.0------------
1967-04-28 9.5 10.9 8.6--- 8.0 1.0---- 7.0------------
1967-04-29 10.1 15.8 7.4--- 2.3 3.0---- 0.0------------
1967-04-30 9.9 14.0 5.6--- 3.7 4.0---- 0.0------------
1967-05-01 16.2 22.1 4.3--- 0.7 6.0---- 0.0------------
1967-05-02 15.8 21.9 11.4--- 3.3 4.0---- 3.1------------
1967-05-03 14.9 21.3 10.8--- 4.3 3.0---- 2.0------------
1967-05-04 9.8 16.4 6.4--- 8.0 3.0---- 5.0------------
1967-05-05 5.6 6.7 4.4--- 8.0 2.0---- 0.3------------
1967-05-06 10.0 14.7 5.9--- 5.3 1.0---- 0.0------------
1967-05-07 15.2 20.1 4.4--- 0.7 1.0---- 0.0------------
1967-05-08 15.6 19.5 7.2--- 3.7 1.0---- 0.0------------
1967-05-09 15.8 21.5 11.0--- 2.3 2.0---- 0.0------------
1967-05-10 14.5 19.9 5.8--- 1.3 1.0---- 0.0------------
1967-05-11 14.7 19.7 5.8--- 0.0 1.0---- 0.0------------
1967-05-12 15.8 20.7 4.6--- 0.0 3.0---- 0.0------------
1967-05-13 19.3 26.2 8.2--- 0.0 5.0---- 0.0------------
1967-05-14 19.9 26.0 12.8--- 0.7 4.0---- 0.0------------
1967-05-15 22.2 27.0 12.6--- 1.3 10.0---- 0.0------------
1967-05-16 20.7 26.6 18.3--- 7.0 6.0---- 1.0------------
141.5 ms

 

Źródłem pochodzenia danych jest Instytut Meteorologii i Gospodarki Wodnej – Państwowy Instytut Badawczy. Dane Instytutu Meteorologii i Gospodarki Wodnej – Państwowego Instytutu Badawczego zostały przetworzone.

Dane źródłowe można odnaleźć na stronie https://dane.imgw.pl